Time;durP1;ratioP1;P1;durP2;ratioP2;P2;SDS_P1;SDS_P2;PMS_P1;PMS_P2;Temp;Humidity;BMP_temperature;BMP_pressure;BME280_temperature;BME280_humidity;BME280_pressure;Samples;Min_cycle;Max_cycle;Signal;HPM_P1;HPM_P2
2022/02/08 00:02:16;;;;;;;;;;;;;;;;;;5075557;28;19913;-87
2022/02/08 00:04:41;;;;;;;;;;;;;;;;;;5078012;28;19969;-87
2022/02/08 00:07:08;;;;;;;;;;;;;;;;;;5078561;28;19916;-87
2022/02/08 00:09:33;;;;;;;;;;;;;;;;;;5096924;28;19919;-88
2022/02/08 00:11:58;;;;;;;;;;;;;;;;;;5096691;28;19912;-87
2022/02/08 00:14:23;;;;;;;;;;;;;;;;;;5073730;28;19918;-87
2022/02/08 00:16:48;;;;;;;;;;;;;;;;;;5076880;28;19999;-87
2022/02/08 00:19:13;;;;;;;;;;;;;;;;;;5078136;28;19934;-86
2022/02/08 00:21:39;;;;;;;;;;;;;;;;;;5078368;28;19989;-87
2022/02/08 00:24:04;;;;;;;;;;;;;;;;;;5077757;28;20300;-87
2022/02/08 00:26:29;;;;;;;;;;;;;;;;;;5096542;28;20367;-87
2022/02/08 00:28:54;;;;;;;;;;;;;;;;;;5077724;28;19912;-87
2022/02/08 00:31:19;;;;;;;;;;;;;;;;;;5078005;28;19912;-87
2022/02/08 00:33:44;;;;;;;;;;;;;;;;;;5096317;28;20412;-87
2022/02/08 00:36:09;;;;;;;;;;;;;;;;;;5077588;28;19960;-87
2022/02/08 00:38:35;;;;;;;;;;;;;;;;;;5078315;28;19957;-87
2022/02/08 00:41:01;;;;;;;;;;;;;;;;;;5077769;28;20613;-87
2022/02/08 00:43:32;;;;;;;;;;;;;;;;;;5076782;28;19916;-87
2022/02/08 00:46:02;;;;;;;;;;;;;;;;;;5077962;28;20045;-87
2022/02/08 00:48:38;;;;;;;;;;;;;;;;;;5070075;28;19990;-87
2022/02/08 00:51:03;;;;;;;;;;;;;;;;;;5077702;28;19923;-87
2022/02/08 00:53:28;;;;;;;;;;;;;;;;;;5077878;28;20287;-87
2022/02/08 00:55:54;;;;;;;;;;;;;;;;;;5095857;28;19947;-87
2022/02/08 00:58:19;;;;;;;;;;;;;;;;;;5077617;28;20009;-87
2022/02/08 01:00:44;;;;;;;;;;;;;;;;;;5077590;28;19938;-87
2022/02/08 01:03:09;;;;;;;;;;;;;;;;;;5095275;28;20390;-87
2022/02/08 01:05:38;;;;;;;;;;;;;;;;;;5077552;28;19916;-88
2022/02/08 01:08:04;;;;;;;;;;;;;;;;;;5077231;28;19948;-87
2022/02/08 01:10:35;;;;;;;;;;;;;;;;;;5077091;28;19951;-87
2022/02/08 01:13:00;;;;;;;;;;;;;;;;;;5076979;28;19912;-87
2022/02/08 01:15:25;;;;;;;;;;;;;;;;;;5076964;28;19919;-87
2022/02/08 01:17:55;;;;;;;;;;;;;;;;;;5077399;28;19916;-87
2022/02/08 01:20:29;;;;;;;;;;;;;;;;;;5077012;28;19909;-87
2022/02/08 01:22:54;;;;;;;;;;;;;;;;;;5095437;28;19973;-88
2022/02/08 01:25:27;;;;;;;;;;;;;;;;;;5077140;28;20287;-87
2022/02/08 01:27:55;;;;;;;;;;;;;;;;;;5070024;28;19958;-87
2022/02/08 01:30:29;;;;;;;;;;;;;;;;;;5076930;28;19908;-87
2022/02/08 01:36:07;;;;;;;;;;;;;;;;;;5095099;28;19916;-87
2022/02/08 01:38:17;;;;;;;;;;;;;;;;;;5090726;28;19916;-87
2022/02/08 01:46:33;;;;;;;;;;;;;;;;;;5094853;28;19918;-87
2022/02/08 01:49:11;;;;;;;;;;;;;;;;;;5094653;28;19958;-87
2022/02/08 01:51:36;;;;;;;;;;;;;;;;;;5076622;28;20404;-87
2022/02/08 01:54:01;;;;;;;;;;;;;;;;;;5076605;28;19912;-87
2022/02/08 01:56:26;;;;;;;;;;;;;;;;;;5076793;28;19978;-87
2022/02/08 01:58:52;;;;;;;;;;;;;;;;;;5094394;28;20379;-87
2022/02/08 02:01:17;;;;;;;;;;;;;;;;;;5075916;28;20432;-87
2022/02/08 02:03:43;;;;;;;;;;;;;;;;;;5094434;28;20375;-87
2022/02/08 02:06:08;;;;;;;;;;;;;;;;;;5094629;28;19916;-87
2022/02/08 02:08:34;;;;;;;;;;;;;;;;;;5076405;28;19919;-87
2022/02/08 02:10:59;;;;;;;;;;;;;;;;;;5076092;28;19916;-87
2022/02/08 02:13:41;;;;;;;;;;;;;;;;;;5076067;28;19919;-87
2022/02/08 02:16:07;;;;;;;;;;;;;;;;;;5076143;28;19923;-87
2022/02/08 02:18:33;;;;;;;;;;;;;;;;;;5076195;28;19991;-87
2022/02/08 02:20:58;;;;;;;;;;;;;;;;;;5075807;28;19954;-87
2022/02/08 02:23:23;;;;;;;;;;;;;;;;;;5075873;28;19912;-87
2022/02/08 02:25:48;;;;;;;;;;;;;;;;;;5075090;28;19919;-87
2022/02/08 02:28:13;;;;;;;;;;;;;;;;;;5075672;28;19912;-87
2022/02/08 02:30:38;;;;;;;;;;;;;;;;;;5075506;28;19916;-87
2022/02/08 02:33:03;;;;;;;;;;;;;;;;;;5073601;28;19912;-87
2022/02/08 02:35:28;;;;;;;;;;;;;;;;;;5075837;28;19912;-87
2022/02/08 02:37:58;;;;;;;;;;;;;;;;;;5075475;28;20424;-87
2022/02/08 02:40:24;;;;;;;;;;;;;;;;;;5067937;28;19912;-88
2022/02/08 02:42:49;;;;;;;;;;;;;;;;;;5093745;28;20002;-87
2022/02/08 02:45:14;;;;;;;;;;;;;;;;;;5075255;28;19922;-87
2022/02/08 02:47:39;;;;;;;;;;;;;;;;;;5075456;28;19935;-87
2022/02/08 02:50:05;;;;;;;;;;;;;;;;;;5074984;28;19912;-87
2022/02/08 02:52:30;;;;;;;;;;;;;;;;;;5075349;28;19984;-87
2022/02/08 02:54:55;;;;;;;;;;;;;;;;;;5075325;28;19912;-88
2022/02/08 02:57:22;;;;;;;;;;;;;;;;;;5075258;28;19912;-88
2022/02/08 02:59:50;;;;;;;;;;;;;;;;;;5075393;28;20256;-87
2022/02/08 03:02:32;;;;;;;;;;;;;;;;;;5074851;28;19912;-88
2022/02/08 03:05:09;;;;;;;;;;;;;;;;;;5075181;28;19920;-87
2022/02/08 03:18:35;;;;;;;;;;;;;;;;;;5093321;28;19931;-88
2022/02/08 03:21:01;;;;;;;;;;;;;;;;;;5075103;28;19912;-88
2022/02/08 03:23:27;;;;;;;;;;;;;;;;;;5074908;28;19908;-87
2022/02/08 03:25:52;;;;;;;;;;;;;;;;;;5093506;28;20007;-87
2022/02/08 03:28:17;;;;;;;;;;;;;;;;;;5074856;28;19908;-88
2022/02/08 03:30:42;;;;;;;;;;;;;;;;;;5074474;28;19916;-87
2022/02/08 03:33:08;;;;;;;;;;;;;;;;;;5074994;28;19917;-87
2022/02/08 03:35:34;;;;;;;;;;;;;;;;;;5075012;28;19955;-87
2022/02/08 03:38:02;;;;;;;;;;;;;;;;;;5078613;28;19962;-88
2022/02/08 03:40:51;;;;;;;;;;;;;;;;;;5079196;28;19934;-88
2022/02/08 03:45:47;;;;;;;;;;;;;;;;;;5097445;28;19912;-88
2022/02/08 03:48:16;;;;;;;;;;;;;;;;;;5078940;28;19916;-88
2022/02/08 03:50:43;;;;;;;;;;;;;;;;;;5078302;28;19955;-87
2022/02/08 03:53:08;;;;;;;;;;;;;;;;;;5097214;28;20360;-87
2022/02/08 03:55:33;;;;;;;;;;;;;;;;;;5078770;28;20356;-87
2022/02/08 03:57:58;;;;;;;;;;;;;;;;;;5078982;28;19912;-88
2022/02/08 04:00:26;;;;;;;;;;;;;;;;;;5078311;28;20359;-88
2022/02/08 04:02:55;;;;;;;;;;;;;;;;;;5078538;28;19964;-88
2022/02/08 04:05:27;;;;;;;;;;;;;;;;;;5078889;28;19970;-88
2022/02/08 04:08:00;;;;;;;;;;;;;;;;;;5096891;28;19947;-88
2022/02/08 04:10:28;;;;;;;;;;;;;;;;;;5078597;28;19916;-88
2022/02/08 04:37:10;;;;;;;;;;;;;;;;;;5096276;28;20001;-88
2022/02/08 04:42:27;;;;;;;;;;;;;;;;;;5087937;28;19919;-88
2022/02/08 04:45:41;;;;;;;;;;;;;;;;;;5077638;28;20426;-88
2022/02/08 04:50:34;;;;;;;;;;;;;;;;;;5056440;28;20376;-88
2022/02/08 04:53:07;;;;;;;;;;;;;;;;;;5077544;28;20393;-87
2022/02/08 04:58:21;;;;;;;;;;;;;;;;;;5096128;28;19912;-87
2022/02/08 05:01:10;;;;;;;;;;;;;;;;;;5072312;28;19955;-88
2022/02/08 05:44:37;;;;;;;;;;;;;;;;;;5095273;28;20351;-88
2022/02/08 05:47:03;;;;;;;;;;;;;;;;;;5070242;28;19994;-88
2022/02/08 05:49:43;;;;;;;;;;;;;;;;;;5076531;28;20015;-87
2022/02/08 05:54:36;;;;;;;;;;;;;;;;;;5094640;28;20003;-88
2022/02/08 05:57:01;;;;;;;;;;;;;;;;;;5076782;28;20323;-88
2022/02/08 05:59:26;;;;;;;;;;;;;;;;;;5075744;28;20271;-87
2022/02/08 06:01:51;;;;;;;;;;;;;;;;;;5075378;28;19912;-88
2022/02/08 06:04:16;;;;;;;;;;;;;;;;;;5076452;28;19920;-88
2022/02/08 06:06:41;;;;;;;;;;;;;;;;;;5076353;28;19912;-88
2022/02/08 06:09:07;;;;;;;;;;;;;;;;;;5094695;28;19912;-88
2022/02/08 06:11:35;;;;;;;;;;;;;;;;;;5076840;28;20361;-88
2022/02/08 06:14:02;;;;;;;;;;;;;;;;;;5075883;28;20449;-88
2022/02/08 06:16:27;;;;;;;;;;;;;;;;;;5076268;28;20053;-88
2022/02/08 06:18:53;;;;;;;;;;;;;;;;;;5093914;28;20352;-88
2022/02/08 06:21:18;;;;;;;;;;;;;;;;;;5076197;28;19919;-88
2022/02/08 06:23:43;;;;;;;;;;;;;;;;;;5075990;28;19916;-88
2022/02/08 06:26:10;;;;;;;;;;;;;;;;;;5075670;28;20002;-88
2022/02/08 06:28:35;;;;;;;;;;;;;;;;;;5075763;28;19923;-87
2022/02/08 06:31:01;;;;;;;;;;;;;;;;;;5093749;28;19912;-88
2022/02/08 06:33:26;;;;;;;;;;;;;;;;;;5075792;28;19966;-88
2022/02/08 06:35:51;;;;;;;;;;;;;;;;;;5094091;28;19916;-87
2022/02/08 06:38:17;;;;;;;;;;;;;;;;;;5075451;28;20367;-88
2022/02/08 06:40:45;;;;;;;;;;;;;;;;;;5075763;28;19961;-88
2022/02/08 06:43:10;;;;;;;;;;;;;;;;;;5075433;28;20318;-88
2022/02/08 06:45:35;;;;;;;;;;;;;;;;;;5075201;28;20007;-88
2022/02/08 06:48:02;;;;;;;;;;;;;;;;;;5075361;28;19912;-88
2022/02/08 06:50:27;;;;;;;;;;;;;;;;;;5075486;28;19912;-88
2022/02/08 06:52:53;;;;;;;;;;;;;;;;;;5075389;28;19919;-87
2022/02/08 06:55:18;;;;;;;;;;;;;;;;;;5074919;28;19923;-88
2022/02/08 06:57:52;;;;;;;;;;;;;;;;;;5075648;28;19912;-88
2022/02/08 07:00:20;;;;;;;;;;;;;;;;;;5093178;28;20276;-88
2022/02/08 07:02:45;;;;;;;;;;;;;;;;;;5075669;28;20567;-88
2022/02/08 07:05:11;;;;;;;;;;;;;;;;;;5074992;28;19942;-88
2022/02/08 07:07:36;;;;;;;;;;;;;;;;;;5075279;28;19958;-88
2022/02/08 07:10:03;;;;;;;;;;;;;;;;;;5093528;28;19999;-87
2022/02/08 07:12:28;;;;;;;;;;;;;;;;;;5075044;28;20031;-88
2022/02/08 07:14:53;;;;;;;;;;;;;;;;;;5075045;28;19998;-87
2022/02/08 07:17:18;;;;;;;;;;;;;;;;;;5075091;28;19912;-87
2022/02/08 07:19:43;;;;;;;;;;;;;;;;;;5075172;28;19951;-87
2022/02/08 07:22:08;;;;;;;;;;;;;;;;;;5075228;28;20338;-88
2022/02/08 07:24:33;;;;;;;;;;;;;;;;;;5074696;28;19916;-87
2022/02/08 07:26:59;;;;;;;;;;;;;;;;;;5074926;28;19914;-87
2022/02/08 07:29:27;;;;;;;;;;;;;;;;;;5074610;28;19912;-87
2022/02/08 07:31:56;;;;;;;;;;;;;;;;;;5075134;28;19912;-87
2022/02/08 07:34:43;;;;;;;;;;;;;;;;;;5099834;28;19916;-87
2022/02/08 07:39:41;;;;;;;;;;;;;;;;;;5089988;28;19936;-86
2022/02/08 07:42:06;;;;;;;;;;;;;;;;;;5090750;28;19964;-87
2022/02/08 07:44:31;;;;;;;;;;;;;;;;;;5074714;28;20006;-88
2022/02/08 07:46:56;;;;;;;;;;;;;;;;;;5074641;28;19958;-87
2022/02/08 07:49:21;;;;;;;;;;;;;;;;;;5075088;28;20395;-86
2022/02/08 07:51:46;;;;;;;;;;;;;;;;;;5074958;28;20300;-88
2022/02/08 07:54:12;;;;;;;;;;;;;;;;;;5075915;28;19920;-87
2022/02/08 07:56:37;;;;;;;;;;;;;;;;;;5074430;28;19912;-87
2022/02/08 07:59:02;;;;;;;;;;;;;;;;;;5074316;28;19920;-87
2022/02/08 08:01:27;;;;;;;;;;;;;;;;;;5074470;28;19961;-87
2022/02/08 08:03:53;;;;;;;;;;;;;;;;;;5074093;28;19950;-87
2022/02/08 08:06:19;;;;;;;;;;;;;;;;;;5074257;28;19959;-87
2022/02/08 08:08:44;;;;;;;;;;;;;;;;;;5091858;28;19916;-87
2022/02/08 08:11:14;;;;;;;;;;;;;;;;;;5092405;28;20355;-87
2022/02/08 08:13:47;;;;;;;;;;;;;;;;;;5074218;28;20604;-87
2022/02/08 08:17:13;;;;;;;;;;;;;;;;;;5073531;28;19951;-87
2022/02/08 08:21:22;;;;;;;;;;;;;;;;;;5092510;28;19916;-87
2022/02/08 08:23:48;;;;;;;;;;;;;;;;;;5075303;28;19916;-87
2022/02/08 08:26:13;;;;;;;;;;;;;;;;;;5077907;28;20010;-87
2022/02/08 08:28:39;;;;;;;;;;;;;;;;;;5077868;28;20660;-87
2022/02/08 08:31:04;;;;;;;;;;;;;;;;;;5078611;28;19916;-87
2022/02/08 08:33:30;;;;;;;;;;;;;;;;;;5076387;28;20049;-86
2022/02/08 08:35:55;;;;;;;;;;;;;;;;;;5077734;28;19948;-87
2022/02/08 08:38:20;;;;;;;;;;;;;;;;;;5076960;28;19928;-87
2022/02/08 08:40:58;;;;;;;;;;;;;;;;;;5083653;28;19922;-87
2022/02/08 08:51:46;;;;;;;;;;;;;;;;;;5095731;28;19935;-87
2022/02/08 08:54:11;;;;;;;;;;;;;;;;;;5077862;28;19912;-87
2022/02/08 08:56:36;;;;;;;;;;;;;;;;;;5077859;28;20053;-87
2022/02/08 08:59:01;;;;;;;;;;;;;;;;;;5077325;28;19965;-87
2022/02/08 09:01:26;;;;;;;;;;;;;;;;;;5077358;28;20360;-87
2022/02/08 09:03:52;;;;;;;;;;;;;;;;;;5077540;28;19916;-87
2022/02/08 09:06:17;;;;;;;;;;;;;;;;;;5096121;28;19908;-87
2022/02/08 09:08:43;;;;;;;;;;;;;;;;;;5077151;28;19965;-87
2022/02/08 09:11:16;;;;;;;;;;;;;;;;;;5077257;28;20015;-88
2022/02/08 09:13:48;;;;;;;;;;;;;;;;;;5076542;28;19908;-87
2022/02/08 09:24:52;;;;;;;;;;;;;;;;;;5095417;28;19920;-87
2022/02/08 09:30:05;;;;;;;;;;;;;;;;;;5095406;28;19912;-86
2022/02/08 09:32:43;;;;;;;;;;;;;;;;;;5095289;28;19913;-87
2022/02/08 09:35:08;;;;;;;;;;;;;;;;;;5068161;28;19995;-87
2022/02/08 09:37:33;;;;;;;;;;;;;;;;;;5076983;28;19951;-87
2022/02/08 09:39:59;;;;;;;;;;;;;;;;;;5094999;28;19912;-87
2022/02/08 09:42:25;;;;;;;;;;;;;;;;;;5076917;28;19919;-87
2022/02/08 09:44:50;;;;;;;;;;;;;;;;;;5076469;28;19916;-86
2022/02/08 09:47:18;;;;;;;;;;;;;;;;;;5094977;28;19947;-87
2022/02/08 09:49:52;;;;;;;;;;;;;;;;;;5076419;28;19912;-87
2022/02/08 09:52:19;;;;;;;;;;;;;;;;;;5068887;28;19916;-86
2022/02/08 09:54:44;;;;;;;;;;;;;;;;;;5076708;28;19908;-87
2022/02/08 09:57:09;;;;;;;;;;;;;;;;;;5076554;28;19913;-87
2022/02/08 09:59:35;;;;;;;;;;;;;;;;;;5094380;28;19913;-86
2022/02/08 10:02:00;;;;;;;;;;;;;;;;;;5076220;28;19908;-87
2022/02/08 10:04:25;;;;;;;;;;;;;;;;;;5076501;28;19916;-87
2022/02/08 10:06:52;;;;;;;;;;;;;;;;;;5076468;28;19915;-87
2022/02/08 10:09:17;;;;;;;;;;;;;;;;;;5075742;28;19912;-87
2022/02/08 10:11:46;;;;;;;;;;;;;;;;;;5094418;28;19912;-87
2022/02/08 10:14:40;;;;;;;;;;;;;;;;;;5075460;28;20275;-87
2022/02/08 10:22:29;;;;;;;;;;;;;;;;;;5094464;28;20379;-87
2022/02/08 10:24:55;;;;;;;;;;;;;;;;;;5076018;28;19922;-87
2022/02/08 10:27:34;;;;;;;;;;;;;;;;;;5075740;28;20007;-86
2022/02/08 10:30:26;;;;;;;;;;;;;;;;;;5093946;28;19966;-86
2022/02/08 10:38:12;;;;;;;;;;;;;;;;;;5094300;28;19978;-86
2022/02/08 10:40:41;;;;;;;;;;;;;;;;;;5075557;28;19928;-86
2022/02/08 10:43:07;;;;;;;;;;;;;;;;;;5075523;28;19942;-86
2022/02/08 10:45:33;;;;;;;;;;;;;;;;;;5074668;28;20394;-85
2022/02/08 10:47:58;;;;;;;;;;;;;;;;;;5074963;28;19916;-86
2022/02/08 10:50:23;;;;;;;;;;;;;;;;;;5075481;28;20053;-85
2022/02/08 10:52:49;;;;;;;;;;;;;;;;;;5075695;28;20349;-85
2022/02/08 10:58:08;;;;;;;;;;;;;;;;;;5093519;28;19912;-86
2022/02/08 11:00:39;;;;;;;;;;;;;;;;;;5075264;28;19908;-86
2022/02/08 11:03:13;;;;;;;;;;;;;;;;;;5075913;28;20272;-86
2022/02/08 11:05:50;;;;;;;;;;;;;;;;;;5075169;28;19912;-86
2022/02/08 11:08:36;;;;;;;;;;;;;;;;;;5074856;28;20379;-86
2022/02/08 11:11:21;;;;;;;;;;;;;;;;;;5093302;28;19908;-86
2022/02/08 11:14:07;;;;;;;;;;;;;;;;;;5075303;28;19916;-86
2022/02/08 11:16:49;;;;;;;;;;;;;;;;;;5075086;28;19927;-86
2022/02/08 11:19:47;;;;;;;;;;;;;;;;;;5075064;28;19961;-86
2022/02/08 11:22:22;;;;;;;;;;;;;;;;;;5093274;28;19912;-86
2022/02/08 11:24:55;;;;;;;;;;;;;;;;;;5074774;28;19916;-86
2022/02/08 11:27:21;;;;;;;;;;;;;;;;;;5074765;28;19912;-86
2022/02/08 11:29:46;;;;;;;;;;;;;;;;;;5074905;28;19916;-86
2022/02/08 11:41:09;;;;;;;;;;;;;;;;;;5091411;28;19919;-86
2022/02/08 11:43:31;;;;;;;;;;;;;;;;;;5090931;28;19916;-86
2022/02/08 11:45:56;;;;;;;;;;;;;;;;;;5092897;28;19995;-86
2022/02/08 11:48:58;;;;;;;;;;;;;;;;;;5074924;28;20754;-86
2022/02/08 11:51:32;;;;;;;;;;;;;;;;;;5092119;28;20394;-86
2022/02/08 11:54:01;;;;;;;;;;;;;;;;;;5093153;28;19913;-86
2022/02/08 11:56:41;;;;;;;;;;;;;;;;;;5069468;28;20017;-86
2022/02/08 12:01:48;;;;;;;;;;;;;;;;;;5096783;28;19916;-86
2022/02/08 12:09:27;;;;;;;;;;;;;;;;;;5098486;28;19916;-86
2022/02/08 12:12:14;;;;;;;;;;;;;;;;;;5078129;28;20422;-86
2022/02/08 12:31:36;;;;;;;;;;;;;;;;;;5100097;28;19973;-86
2022/02/08 12:34:21;;;;;;;;;;;;;;;;;;5091412;28;19920;-86
2022/02/08 12:48:26;;;;;;;;;;;;;;;;;;5092891;28;20386;-86
2022/02/08 12:51:35;;;;;;;;;;;;;;;;;;5096365;28;19939;-88
2022/02/08 12:53:59;;;;;;;;;;;;;;;;;;5095984;28;19994;-90
2022/02/08 12:56:34;;;;;;;;;;;;;;;;;;5077961;28;19919;-89
2022/02/08 13:01:39;;;;;;;;;;;;;;;;;;5096289;28;19919;-89
2022/02/08 13:04:12;;;;;;;;;;;;;;;;;;5078018;28;19962;-88
2022/02/08 13:16:03;;;;;;;;;;;;;;;;;;5096058;28;20402;-88
2022/02/08 14:09:12;;;;;;;;;;;;;;;;;;5095116;28;19918;-88
2022/02/08 14:14:32;;;;;;;;;;;;;;;;;;5043275;28;19920;-88
2022/02/08 14:18:00;;;;;;;;;;;;;;;;;;5072383;28;20386;-88
2022/02/08 14:19:51;;;;;;;;;;;;;;;;;;5077966;28;19912;-89
2022/02/08 14:22:51;;;;;;;;;;;;;;;;;;5076591;28;19923;-89
2022/02/08 14:30:41;;;;;;;;;;;;;;;;;;5094424;28;19919;-89
2022/02/08 14:33:46;;;;;;;;;;;;;;;;;;5079829;28;19916;-89
2022/02/08 14:36:18;;;;;;;;;;;;;;;;;;5092619;28;19916;-89
2022/02/08 15:08:14;;;;;;;;;;;;;;;;;;5085482;28;19919;-88
2022/02/08 15:10:48;;;;;;;;;;;;;;;;;;5075399;28;19912;-88
2022/02/08 15:13:15;;;;;;;;;;;;;;;;;;5075739;28;20408;-88
2022/02/08 15:18:27;;;;;;;;;;;;;;;;;;5093359;28;19919;-88
2022/02/08 15:20:52;;;;;;;;;;;;;;;;;;5075004;28;19982;-88
2022/02/08 15:23:19;;;;;;;;;;;;;;;;;;5070135;28;19920;-88
2022/02/08 15:25:45;;;;;;;;;;;;;;;;;;5090814;28;20049;-88
2022/02/08 15:28:11;;;;;;;;;;;;;;;;;;5067736;28;20275;-89
2022/02/08 15:30:36;;;;;;;;;;;;;;;;;;5093374;28;19916;-89
2022/02/08 15:33:05;;;;;;;;;;;;;;;;;;5098387;28;19920;-88
2022/02/08 15:35:30;;;;;;;;;;;;;;;;;;5093045;28;19916;-89
2022/02/08 15:37:55;;;;;;;;;;;;;;;;;;5074990;28;19957;-88
2022/02/08 15:40:20;;;;;;;;;;;;;;;;;;5069220;28;19916;-88
2022/02/08 15:42:45;;;;;;;;;;;;;;;;;;5091655;28;19920;-86
2022/02/08 15:45:33;;;;;;;;;;;;;;;;;;5088117;28;20248;-88
2022/02/08 15:48:00;;;;;;;;;;;;;;;;;;5091331;28;19916;-89
2022/02/08 15:51:30;;;;;;;;;;;;;;;;;;5075322;28;19915;-89
2022/02/08 16:00:20;;;;;;;;;;;;;;;;;;5093486;28;19912;-89
2022/02/08 16:01:15;;;;;;;;;;;;;;;;;;5093184;28;19916;-88
2022/02/08 16:24:32;;;;;;;;;;;;;;;;;;5093152;28;20379;-89
2022/02/08 16:30:03;;;;;;;;;;;;;;;;;;5089139;28;19912;-89
2022/02/08 16:59:12;;;;;;;;;;;;;;;;;;5094554;28;20330;-90
2022/02/08 17:01:38;;;;;;;;;;;;;;;;;;5078341;28;19916;-90
2022/02/08 17:04:07;;;;;;;;;;;;;;;;;;5078053;28;19919;-90
2022/02/08 17:06:34;;;;;;;;;;;;;;;;;;5077224;28;19912;-89
2022/02/08 17:09:15;;;;;;;;;;;;;;;;;;5070346;28;19920;-89
2022/02/08 17:14:22;;;;;;;;;;;;;;;;;;5094611;28;19916;-89
2022/02/08 17:16:56;;;;;;;;;;;;;;;;;;5062205;28;19961;-89
2022/02/08 17:36:32;;;;;;;;;;;;;;;;;;5105422;28;19927;-90
2022/02/08 17:46:36;;;;;;;;;;;;;;;;;;5096182;28;19980;-90
2022/02/08 17:49:01;;;;;;;;;;;;;;;;;;5077042;28;19918;-90
2022/02/08 17:51:26;;;;;;;;;;;;;;;;;;5077549;28;20536;-89
2022/02/08 17:53:51;;;;;;;;;;;;;;;;;;5071396;28;19920;-90
2022/02/08 17:56:16;;;;;;;;;;;;;;;;;;5077950;28;19916;-90
2022/02/08 17:58:44;;;;;;;;;;;;;;;;;;5096965;28;20256;-90
2022/02/08 18:01:09;;;;;;;;;;;;;;;;;;5080033;28;20324;-90
2022/02/08 18:03:34;;;;;;;;;;;;;;;;;;5073903;28;20402;-89
2022/02/08 18:05:59;;;;;;;;;;;;;;;;;;5077619;28;20003;-89
2022/02/08 18:08:25;;;;;;;;;;;;;;;;;;5076449;28;20010;-89
2022/02/08 18:10:55;;;;;;;;;;;;;;;;;;5076791;28;19982;-89
2022/02/08 18:13:20;;;;;;;;;;;;;;;;;;5077452;28;19912;-89
2022/02/08 18:15:46;;;;;;;;;;;;;;;;;;5076534;28;19919;-89
2022/02/08 18:18:24;;;;;;;;;;;;;;;;;;5077473;28;19912;-89
2022/02/08 18:20:56;;;;;;;;;;;;;;;;;;5089094;28;19951;-89
2022/02/08 19:19:02;;;;;;;;;;;;;;;;;;5095270;28;19912;-85
2022/02/08 19:23:53;;;;;;;;;;;;;;;;;;5094091;28;20409;-85
2022/02/08 19:26:18;;;;;;;;;;;;;;;;;;5074353;28;19916;-84
2022/02/08 19:28:43;;;;;;;;;;;;;;;;;;5088588;28;19966;-84
2022/02/08 19:31:08;;;;;;;;;;;;;;;;;;5092817;28;19916;-85
2022/02/08 19:33:33;;;;;;;;;;;;;;;;;;5099302;28;20263;-85
2022/02/08 19:35:58;;;;;;;;;;;;;;;;;;5074741;28;19919;-85
2022/02/08 19:38:26;;;;;;;;;;;;;;;;;;5080707;28;19908;-85
2022/02/08 19:40:51;;;;;;;;;;;;;;;;;;5092620;28;19912;-85
2022/02/08 19:43:16;;;;;;;;;;;;;;;;;;5089579;28;19908;-85
2022/02/08 19:45:44;;;;;;;;;;;;;;;;;;5081413;28;20471;-85
2022/02/08 19:48:09;;;;;;;;;;;;;;;;;;5074234;28;20053;-84
2022/02/08 19:50:36;;;;;;;;;;;;;;;;;;5092080;28;20325;-84
2022/02/08 19:53:01;;;;;;;;;;;;;;;;;;5072437;28;20417;-85
2022/02/08 19:55:38;;;;;;;;;;;;;;;;;;5073770;28;19915;-84
2022/02/08 19:58:09;;;;;;;;;;;;;;;;;;5068213;28;19912;-85
2022/02/08 20:00:34;;;;;;;;;;;;;;;;;;5073568;28;20411;-84
2022/02/08 20:03:02;;;;;;;;;;;;;;;;;;5089030;28;20019;-84
2022/02/08 20:05:30;;;;;;;;;;;;;;;;;;5089649;28;19916;-84
2022/02/08 20:07:55;;;;;;;;;;;;;;;;;;5073185;28;20333;-83
2022/02/08 20:10:20;;;;;;;;;;;;;;;;;;5073659;28;20352;-84
2022/02/08 20:12:45;;;;;;;;;;;;;;;;;;5089740;28;20353;-84
2022/02/08 20:15:10;;;;;;;;;;;;;;;;;;5094905;28;19912;-85
2022/02/08 20:17:36;;;;;;;;;;;;;;;;;;5094222;28;19916;-84
2022/02/08 20:20:08;;;;;;;;;;;;;;;;;;5076980;28;19916;-84
2022/02/08 20:22:33;;;;;;;;;;;;;;;;;;5091172;28;19919;-83
2022/02/08 20:24:58;;;;;;;;;;;;;;;;;;5076924;28;19916;-83
2022/02/08 20:27:38;;;;;;;;;;;;;;;;;;5076881;28;20299;-84
2022/02/08 20:30:03;;;;;;;;;;;;;;;;;;5095517;28;19912;-84
2022/02/08 20:32:28;;;;;;;;;;;;;;;;;;5095373;28;19920;-84
2022/02/08 20:34:53;;;;;;;;;;;;;;;;;;5094770;28;19943;-84
2022/02/08 20:37:18;;;;;;;;;;;;;;;;;;5076907;28;20006;-83
2022/02/08 20:39:43;;;;;;;;;;;;;;;;;;5077672;28;19912;-83
2022/02/08 20:42:09;;;;;;;;;;;;;;;;;;5068656;28;19927;-84
2022/02/08 20:44:37;;;;;;;;;;;;;;;;;;5078403;28;19916;-84
2022/02/08 20:47:12;;;;;;;;;;;;;;;;;;5093797;28;19955;-84
2022/02/08 20:49:38;;;;;;;;;;;;;;;;;;5095734;28;19938;-84
2022/02/08 20:52:03;;;;;;;;;;;;;;;;;;5096424;28;19913;-84
2022/02/08 20:54:37;;;;;;;;;;;;;;;;;;5077542;28;19919;-84
2022/02/08 20:57:09;;;;;;;;;;;;;;;;;;5098088;28;20334;-84
2022/02/08 20:59:34;;;;;;;;;;;;;;;;;;5077488;28;19912;-84
2022/02/08 21:02:00;;;;;;;;;;;;;;;;;;5077016;28;19916;-83
2022/02/08 21:04:40;;;;;;;;;;;;;;;;;;5087401;28;19920;-84
2022/02/08 21:07:05;;;;;;;;;;;;;;;;;;5070622;28;19913;-83
2022/02/08 21:09:30;;;;;;;;;;;;;;;;;;5097725;28;20275;-84
2022/02/08 21:12:05;;;;;;;;;;;;;;;;;;5077922;28;19919;-84
2022/02/08 21:14:31;;;;;;;;;;;;;;;;;;5094948;28;19916;-84
2022/02/08 21:16:56;;;;;;;;;;;;;;;;;;5078064;28;19912;-84
2022/02/08 21:19:21;;;;;;;;;;;;;;;;;;5095734;28;19934;-84
2022/02/08 21:21:46;;;;;;;;;;;;;;;;;;5092820;28;20341;-84
2022/02/08 21:24:11;;;;;;;;;;;;;;;;;;5091921;28;19912;-84
2022/02/08 21:26:41;;;;;;;;;;;;;;;;;;5095203;28;20812;-85
2022/02/08 21:31:54;;;;;;;;;;;;;;;;;;5093836;28;19912;-84
2022/02/08 21:48:00;;;;;;;;;;;;;;;;;;5088649;28;19912;-84
2022/02/08 21:51:05;;;;;;;;;;;;;;;;;;5077509;28;20248;-84
2022/02/08 21:53:21;;;;;;;;;;;;;;;;;;5094548;28;19912;-84
2022/02/08 21:55:47;;;;;;;;;;;;;;;;;;5078229;28;19946;-84
2022/02/08 21:58:12;;;;;;;;;;;;;;;;;;5094895;28;20375;-84
2022/02/08 22:00:37;;;;;;;;;;;;;;;;;;5075987;28;20589;-84
2022/02/08 22:03:02;;;;;;;;;;;;;;;;;;5094629;28;19912;-84
2022/02/08 22:05:28;;;;;;;;;;;;;;;;;;5094474;28;19943;-85
2022/02/08 22:08:07;;;;;;;;;;;;;;;;;;5076198;28;19955;-84
2022/02/08 22:18:36;;;;;;;;;;;;;;;;;;5098768;28;20240;-84
2022/02/08 22:23:51;;;;;;;;;;;;;;;;;;5094077;28;19919;-84
2022/02/08 22:29:05;;;;;;;;;;;;;;;;;;5095500;28;19926;-84
2022/02/08 22:34:01;;;;;;;;;;;;;;;;;;5091237;28;19963;-83
2022/02/08 22:36:32;;;;;;;;;;;;;;;;;;5089452;28;19938;-84
2022/02/08 22:39:10;;;;;;;;;;;;;;;;;;5074616;28;19923;-84
2022/02/08 22:41:59;;;;;;;;;;;;;;;;;;5065018;28;19912;-84
2022/02/08 22:46:55;;;;;;;;;;;;;;;;;;5093947;28;19912;-84
2022/02/08 22:49:20;;;;;;;;;;;;;;;;;;5075802;28;19912;-84
2022/02/08 22:51:45;;;;;;;;;;;;;;;;;;5075561;28;20003;-84
2022/02/08 22:54:10;;;;;;;;;;;;;;;;;;5075423;28;20299;-84
2022/02/08 22:56:35;;;;;;;;;;;;;;;;;;5076963;28;20364;-84
2022/02/08 22:59:00;;;;;;;;;;;;;;;;;;5093519;28;19912;-84
2022/02/08 23:01:26;;;;;;;;;;;;;;;;;;5071553;28;20416;-84
2022/02/08 23:03:51;;;;;;;;;;;;;;;;;;5093396;28;19960;-84
2022/02/08 23:06:16;;;;;;;;;;;;;;;;;;5093459;28;19920;-84
2022/02/08 23:08:41;;;;;;;;;;;;;;;;;;5075251;28;19912;-85
2022/02/08 23:13:50;;;;;;;;;;;;;;;;;;5093534;28;20007;-84
2022/02/08 23:38:07;;;;;;;;;;;;;;;;;;5092928;28;19960;-84
2022/02/08 23:40:32;;;;;;;;;;;;;;;;;;5093005;28;19995;-84
2022/02/08 23:42:57;;;;;;;;;;;;;;;;;;5092956;28;20003;-84
2022/02/08 23:45:22;;;;;;;;;;;;;;;;;;5074453;28;19916;-84
2022/02/08 23:47:55;;;;;;;;;;;;;;;;;;5074738;28;20294;-84
2022/02/08 23:50:28;;;;;;;;;;;;;;;;;;5074849;28;19912;-84
2022/02/08 23:53:01;;;;;;;;;;;;;;;;;;5067124;28;20405;-85
2022/02/08 23:55:38;;;;;;;;;;;;;;;;;;5096994;28;19922;-84
2022/02/08 23:58:09;;;;;;;;;;;;;;;;;;5072111;28;19918;-84
